createdAt,value
2019-05-23T00:01:04.991Z,86.40
2019-05-23T00:03:41.120Z,86.70
2019-05-23T00:06:11.020Z,86.50
2019-05-23T00:08:40.762Z,86.30
2019-05-23T00:11:32.874Z,86.40
2019-05-23T00:14:09.888Z,86.60
2019-05-23T00:16:38.665Z,87.40
2019-05-23T00:19:07.776Z,87.20
2019-05-23T00:21:37.237Z,87.50
2019-05-23T00:24:05.453Z,87.10
2019-05-23T00:26:34.503Z,86.90
2019-05-23T00:29:09.906Z,87.70
2019-05-23T00:31:35.220Z,87.50
2019-05-23T00:34:04.728Z,87.80
2019-05-23T00:36:34.653Z,87.40
2019-05-23T00:39:04.555Z,87.40
2019-05-23T00:41:32.889Z,87.50
2019-05-23T00:44:01.599Z,87.80
2019-05-23T00:46:29.955Z,87.80
2019-05-23T00:48:58.185Z,87.30
2019-05-23T00:51:26.911Z,87.10
2019-05-23T00:53:56.292Z,87.10
2019-05-23T00:56:24.714Z,86.90
2019-05-23T00:58:54.089Z,87.00
2019-05-23T01:01:22.497Z,87.30
2019-05-23T01:03:52.226Z,87.80
2019-05-23T01:06:21.092Z,87.80
2019-05-23T01:08:50.194Z,88.00
2019-05-23T01:11:19.495Z,88.10
2019-05-23T01:13:47.830Z,88.10
2019-05-23T01:16:16.841Z,88.40
2019-05-23T01:18:45.238Z,89.80
2019-05-23T01:21:17.646Z,89.00
2019-05-23T01:23:50.983Z,88.70
2019-05-23T01:26:19.537Z,88.30
2019-05-23T01:28:48.090Z,87.80
2019-05-23T01:31:17.961Z,88.10
2019-05-23T01:33:46.589Z,88.50
2019-05-23T01:36:15.212Z,88.40
2019-05-23T01:38:43.930Z,88.20
2019-05-23T01:41:12.734Z,88.50
2019-05-23T01:43:41.279Z,88.10
2019-05-23T01:46:10.446Z,87.80
2019-05-23T01:48:38.750Z,87.80
2019-05-23T01:51:07.993Z,87.70
2019-05-23T01:53:37.223Z,87.30
2019-05-23T01:56:05.818Z,87.20
2019-05-23T01:58:34.910Z,87.30
2019-05-23T02:01:04.210Z,87.30
2019-05-23T02:03:32.536Z,88.40
2019-05-23T02:06:01.633Z,88.30
2019-05-23T02:08:30.167Z,88.50
2019-05-23T02:10:58.687Z,88.50
2019-05-23T02:13:27.370Z,88.30
2019-05-23T02:15:56.194Z,88.80
2019-05-23T02:18:25.370Z,88.60
2019-05-23T02:23:31.892Z,88.60
2019-05-23T02:26:00.166Z,88.80
2019-05-23T02:28:29.994Z,88.60
2019-05-23T02:30:58.420Z,88.60
2019-05-23T02:33:26.633Z,88.80
2019-05-23T02:35:54.940Z,89.30
2019-05-23T02:38:24.970Z,89.00
2019-05-23T02:41:11.115Z,89.40
2019-05-23T02:43:41.064Z,89.80
2019-05-23T02:46:10.959Z,89.80
2019-05-23T02:48:43.302Z,90.00
2019-05-23T02:51:26.143Z,90.20
2019-05-23T02:53:54.371Z,90.30
2019-05-23T02:56:22.652Z,90.50
2019-05-23T02:59:07.675Z,90.70
2019-05-23T03:02:14.078Z,90.70
2019-05-23T03:04:43.078Z,91.00
2019-05-23T03:07:11.340Z,91.20
2019-05-23T03:09:39.842Z,91.50
2019-05-23T03:12:09.119Z,91.30
2019-05-23T03:14:38.021Z,91.10
2019-05-23T03:17:08.119Z,91.00
2019-05-23T03:19:42.761Z,90.70
2019-05-23T03:22:35.971Z,90.50
2019-05-23T03:25:09.227Z,90.40
2019-05-23T03:27:40.744Z,90.50
2019-05-23T03:30:12.162Z,90.60
2019-05-23T03:32:44.745Z,90.50
2019-05-23T03:35:31.170Z,90.30
2019-05-23T03:38:00.151Z,90.20
2019-05-23T03:40:28.385Z,90.30
2019-05-23T03:42:57.408Z,90.30
2019-05-23T03:45:27.281Z,90.30
2019-05-23T03:47:55.715Z,90.40
2019-05-23T03:50:24.316Z,90.60
2019-05-23T03:52:52.814Z,90.90
2019-05-23T03:55:22.986Z,91.10
2019-05-23T03:57:52.892Z,91.20
2019-05-23T04:00:23.200Z,91.30
2019-05-23T04:02:51.494Z,91.40
2019-05-23T04:05:20.160Z,91.50
2019-05-23T04:07:48.850Z,91.50
2019-05-23T04:10:17.106Z,91.60
2019-05-23T04:12:45.737Z,91.70
2019-05-23T04:15:14.562Z,91.90
2019-05-23T04:17:42.882Z,92.00
2019-05-23T04:20:11.476Z,92.60
2019-05-23T04:22:39.752Z,92.50
2019-05-23T04:25:08.761Z,92.50
2019-05-23T04:27:37.922Z,92.40
2019-05-23T04:30:09.183Z,93.10
2019-05-23T04:32:37.866Z,93.30
2019-05-23T04:35:07.026Z,93.40
2019-05-23T04:37:36.033Z,93.20
2019-05-23T04:40:08.812Z,93.20
2019-05-23T04:42:37.048Z,92.90
2019-05-23T04:45:06.460Z,92.90
2019-05-23T04:47:35.506Z,92.90
2019-05-23T04:50:07.554Z,92.70
2019-05-23T04:52:36.149Z,92.30
2019-05-23T04:55:06.414Z,92.10
2019-05-23T04:57:35.005Z,92.30
2019-05-23T05:00:04.780Z,92.20
2019-05-23T05:02:33.387Z,92.20
2019-05-23T05:05:02.015Z,92.30
2019-05-23T05:07:30.402Z,92.00
2019-05-23T05:09:58.664Z,92.00
2019-05-23T05:12:26.911Z,92.00
2019-05-23T05:14:55.424Z,91.70
2019-05-23T05:17:23.725Z,91.50
2019-05-23T05:19:51.957Z,91.70
2019-05-23T05:22:20.367Z,91.50
2019-05-23T05:24:48.643Z,91.10
2019-05-23T05:27:17.311Z,90.80
2019-05-23T05:29:45.583Z,90.50
2019-05-23T05:32:15.277Z,90.50
2019-05-23T05:34:43.506Z,90.60
2019-05-23T05:37:11.813Z,91.20
2019-05-23T05:39:40.515Z,91.50
2019-05-23T05:42:09.256Z,91.50
2019-05-23T05:44:39.113Z,91.20
2019-05-23T05:47:09.011Z,91.30
2019-05-23T05:49:37.507Z,91.20
2019-05-23T05:52:07.347Z,91.00
2019-05-23T05:54:36.536Z,90.90
2019-05-23T05:57:05.932Z,90.90
2019-05-23T05:59:34.346Z,90.70
2019-05-23T06:02:03.681Z,91.00
2019-05-23T06:04:32.443Z,90.80
2019-05-23T06:07:18.562Z,90.90
2019-05-23T06:09:48.452Z,90.80
2019-05-23T06:12:16.704Z,90.80
2019-05-23T06:14:46.651Z,90.90
2019-05-23T06:17:17.016Z,91.40
2019-05-23T06:19:45.251Z,91.10
2019-05-23T06:22:13.598Z,90.90
2019-05-23T06:24:48.909Z,90.50
2019-05-23T06:27:13.647Z,90.40
2019-05-23T06:29:41.869Z,90.40
2019-05-23T06:32:11.835Z,90.40
2019-05-23T06:34:40.251Z,90.50
2019-05-23T06:37:09.146Z,90.30
2019-05-23T06:39:38.119Z,90.30
2019-05-23T06:42:07.599Z,89.30
2019-05-23T06:44:37.273Z,88.20
2019-05-23T06:47:07.090Z,88.50
2019-05-23T06:49:35.533Z,88.10
2019-05-23T06:52:04.038Z,87.50
2019-05-23T06:54:32.642Z,87.50
2019-05-23T06:57:00.932Z,87.40
2019-05-23T06:59:29.244Z,86.70
2019-05-23T07:01:57.804Z,86.60
2019-05-23T07:04:26.540Z,86.00
2019-05-23T07:06:54.935Z,86.10
2019-05-23T07:09:23.198Z,85.70
2019-05-23T07:11:52.655Z,85.20
2019-05-23T07:14:20.926Z,85.00
2019-05-23T07:16:50.380Z,84.40
2019-05-23T07:19:18.978Z,84.20
2019-05-23T07:21:47.324Z,84.80
2019-05-23T07:24:15.643Z,82.90
2019-05-23T07:26:44.357Z,82.50
2019-05-23T07:29:12.949Z,82.10
2019-05-23T07:31:41.270Z,82.30
2019-05-23T07:34:09.540Z,81.40
2019-05-23T07:36:39.082Z,80.90
2019-05-23T07:39:11.500Z,79.70
2019-05-23T07:41:39.689Z,78.70
2019-05-23T07:44:08.781Z,78.80
2019-05-23T07:46:37.058Z,76.80
2019-05-23T07:49:05.381Z,76.90
2019-05-23T07:51:33.712Z,75.60
2019-05-23T07:54:03.633Z,75.80
2019-05-23T07:56:33.609Z,76.20
2019-05-23T07:59:01.845Z,75.40
2019-05-23T08:01:32.131Z,72.80
2019-05-23T08:04:19.306Z,69.00
2019-05-23T08:06:30.348Z,69.70
2019-05-23T08:08:58.671Z,70.60
2019-05-23T08:11:27.206Z,71.40
2019-05-23T08:13:55.935Z,66.80
2019-05-23T08:16:24.256Z,67.10
2019-05-23T08:18:52.566Z,65.30
2019-05-23T08:21:21.109Z,66.00
2019-05-23T08:23:49.399Z,64.70
2019-05-23T08:26:19.298Z,62.50
2019-05-23T08:29:12.480Z,61.70
2019-05-23T08:31:17.937Z,60.50
2019-05-23T08:33:46.219Z,60.50
2019-05-23T08:36:15.237Z,62.60
2019-05-23T08:38:43.745Z,59.70
2019-05-23T08:41:12.087Z,60.10
2019-05-23T08:43:40.376Z,60.70
2019-05-23T08:46:08.844Z,59.50
2019-05-23T08:48:37.137Z,60.20
2019-05-23T08:51:06.188Z,62.30
2019-05-23T08:53:34.537Z,60.50
2019-05-23T08:56:05.078Z,60.10
2019-05-23T08:58:33.078Z,59.10
2019-05-23T09:01:02.504Z,57.90
2019-05-23T09:03:30.712Z,58.20
2019-05-23T09:05:59.816Z,59.00
2019-05-23T09:08:29.546Z,59.60
2019-05-23T09:10:57.772Z,61.20
2019-05-23T09:13:26.044Z,58.30
2019-05-23T09:15:54.340Z,56.90
2019-05-23T09:18:22.598Z,54.30
2019-05-23T09:20:51.226Z,55.00
2019-05-23T09:23:19.617Z,54.50
2019-05-23T09:25:47.854Z,53.00
2019-05-23T09:28:17.076Z,52.50
2019-05-23T09:30:45.316Z,53.80
2019-05-23T09:33:13.939Z,52.00
2019-05-23T09:35:42.196Z,50.00
2019-05-23T09:38:10.450Z,50.70
2019-05-23T09:40:38.714Z,47.90
2019-05-23T09:43:07.790Z,49.20
2019-05-23T09:45:36.042Z,47.80
2019-05-23T09:48:04.293Z,49.10
2019-05-23T09:50:33.087Z,49.30
2019-05-23T09:53:01.324Z,49.70
2019-05-23T09:55:30.352Z,50.20
2019-05-23T09:57:58.592Z,48.60
2019-05-23T10:00:28.222Z,51.20
2019-05-23T10:02:56.737Z,51.30
2019-05-23T10:05:42.093Z,47.30
2019-05-23T10:07:54.969Z,48.20
2019-05-23T10:10:23.468Z,50.60
2019-05-23T10:12:51.715Z,50.20
2019-05-23T10:15:39.918Z,49.50
2019-05-23T10:18:10.032Z,48.40
2019-05-23T10:20:39.245Z,48.40
2019-05-23T10:23:07.551Z,47.80
2019-05-23T10:25:35.825Z,49.50
2019-05-23T10:28:04.996Z,49.30
2019-05-23T10:30:33.245Z,48.40
2019-05-23T10:33:01.483Z,45.70
2019-05-23T10:35:30.795Z,48.40
2019-05-23T10:37:59.047Z,47.70
2019-05-23T10:40:27.359Z,48.20
2019-05-23T10:42:55.612Z,45.80
2019-05-23T10:45:23.869Z,46.00
2019-05-23T10:47:52.112Z,47.60
2019-05-23T10:50:20.377Z,46.30
2019-05-23T10:52:48.610Z,46.50
2019-05-23T10:55:16.877Z,46.10
2019-05-23T10:57:45.178Z,45.40
2019-05-23T11:00:15.073Z,45.10
2019-05-23T11:02:43.612Z,44.50
2019-05-23T11:05:14.070Z,45.40
2019-05-23T11:07:42.676Z,47.60
2019-05-23T11:10:11.715Z,46.60
2019-05-23T11:12:40.593Z,45.30
2019-05-23T11:15:08.911Z,44.40
2019-05-23T11:17:37.139Z,46.60
2019-05-23T11:20:08.190Z,48.00
2019-05-23T11:22:36.447Z,44.90
2019-05-23T11:25:07.067Z,47.50
2019-05-23T11:27:35.326Z,48.20
2019-05-23T11:30:05.204Z,43.90
2019-05-23T11:32:33.467Z,43.50
2019-05-23T11:35:01.718Z,44.70
2019-05-23T11:37:29.965Z,46.50
2019-05-23T11:39:58.214Z,45.20
2019-05-23T11:42:26.446Z,47.40
2019-05-23T11:44:54.680Z,46.40
2019-05-23T11:47:23.426Z,45.70
2019-05-23T11:49:51.808Z,45.20
2019-05-23T11:52:20.337Z,46.30
2019-05-23T11:54:49.047Z,45.90
2019-05-23T11:57:17.290Z,44.00
2019-05-23T11:59:45.702Z,43.90
2019-05-23T12:02:15.601Z,41.20
2019-05-23T12:04:43.834Z,43.60
2019-05-23T12:07:19.964Z,43.60
2019-05-23T12:09:48.186Z,44.10
2019-05-23T12:12:16.433Z,44.50
2019-05-23T12:14:44.657Z,42.70
2019-05-23T12:17:12.996Z,41.40
2019-05-23T12:19:41.246Z,44.30
2019-05-23T12:22:09.750Z,41.40
2019-05-23T12:24:38.001Z,41.00
2019-05-23T12:27:06.304Z,41.70
2019-05-23T12:29:34.577Z,44.20
2019-05-23T12:32:04.764Z,42.10
2019-05-23T12:34:33.024Z,41.90
2019-05-23T12:37:18.342Z,41.40
2019-05-23T12:39:31.552Z,40.10
2019-05-23T12:41:59.834Z,43.80
2019-05-23T12:44:28.461Z,40.70
2019-05-23T12:46:56.817Z,41.20
2019-05-23T12:49:29.497Z,40.80
2019-05-23T12:51:58.229Z,43.20
2019-05-23T12:54:26.656Z,42.50
2019-05-23T12:56:55.066Z,41.80
2019-05-23T12:59:23.803Z,39.80
2019-05-23T13:01:53.946Z,41.00
2019-05-23T13:04:22.873Z,41.30
2019-05-23T13:06:51.230Z,40.20
2019-05-23T13:09:19.502Z,39.10
2019-05-23T13:11:47.827Z,40.90
2019-05-23T13:14:16.079Z,42.10
2019-05-23T13:16:44.311Z,41.20
2019-05-23T13:19:13.087Z,39.00
2019-05-23T13:21:41.486Z,38.80
2019-05-23T13:24:09.736Z,35.90
2019-05-23T13:26:38.053Z,35.90
2019-05-23T13:29:06.298Z,36.80
2019-05-23T13:31:34.537Z,37.50
2019-05-23T13:34:02.799Z,37.20
2019-05-23T13:36:31.040Z,37.30
2019-05-23T13:38:59.353Z,35.80
2019-05-23T13:41:27.600Z,35.00
2019-05-23T13:43:55.848Z,35.50
2019-05-23T13:46:24.178Z,38.10
2019-05-23T13:48:52.410Z,38.90
2019-05-23T13:51:20.677Z,38.00
2019-05-23T13:53:48.975Z,37.80
2019-05-23T13:56:17.248Z,38.70
2019-05-23T13:58:45.962Z,38.40
2019-05-23T14:01:14.232Z,39.30
2019-05-23T14:03:42.543Z,36.40
2019-05-23T14:06:11.384Z,35.20
2019-05-23T14:08:39.625Z,35.50
2019-05-23T14:11:08.348Z,36.80
2019-05-23T14:13:36.693Z,37.80
2019-05-23T14:16:05.655Z,38.80
2019-05-23T14:18:35.539Z,37.00
2019-05-23T14:21:04.193Z,38.70
2019-05-23T14:23:33.865Z,39.30
2019-05-23T14:26:02.548Z,38.50
2019-05-23T14:28:31.165Z,34.90
2019-05-23T14:31:15.898Z,34.10
2019-05-23T14:33:48.727Z,33.40
2019-05-23T14:36:35.009Z,34.90
2019-05-23T14:39:06.510Z,33.60
2019-05-23T14:41:45.284Z,34.30
2019-05-23T14:44:09.377Z,35.60
2019-05-23T14:46:39.330Z,36.30
2019-05-23T14:49:09.244Z,37.70
2019-05-23T14:51:42.047Z,37.00
2019-05-23T14:54:18.147Z,34.20
2019-05-23T14:56:46.673Z,35.60
2019-05-23T14:59:15.166Z,37.30
2019-05-23T15:01:44.285Z,35.90
2019-05-23T15:04:12.782Z,36.70
2019-05-23T15:06:41.039Z,35.60
2019-05-23T15:09:09.635Z,34.10
2019-05-23T15:11:38.790Z,34.70
2019-05-23T15:14:07.080Z,35.90
2019-05-23T15:16:35.390Z,34.50
2019-05-23T15:19:03.722Z,37.60
2019-05-23T15:21:32.031Z,34.40
2019-05-23T15:24:00.306Z,35.50
2019-05-23T15:26:28.978Z,35.50
2019-05-23T15:28:57.224Z,36.80
2019-05-23T15:31:25.634Z,34.70
2019-05-23T15:33:53.883Z,34.40
2019-05-23T15:36:22.141Z,35.50
2019-05-23T15:39:07.596Z,32.60
2019-05-23T15:41:20.381Z,33.90
2019-05-23T15:43:48.797Z,31.40
2019-05-23T15:46:17.049Z,32.40
2019-05-23T15:48:45.337Z,32.80
2019-05-23T15:51:15.225Z,35.30
2019-05-23T15:54:03.479Z,34.80
2019-05-23T15:56:33.410Z,35.30
2019-05-23T15:59:19.621Z,33.60
2019-05-23T16:01:58.397Z,33.60
2019-05-23T16:04:27.832Z,32.20
2019-05-23T16:06:56.322Z,32.70
2019-05-23T16:09:30.101Z,32.10
2019-05-23T16:11:55.206Z,34.10
2019-05-23T16:14:23.583Z,32.90
2019-05-23T16:16:56.219Z,33.10
2019-05-23T16:19:21.796Z,32.30
2019-05-23T16:21:50.070Z,30.50
2019-05-23T16:24:18.684Z,34.40
2019-05-23T16:26:47.306Z,32.90
2019-05-23T16:29:16.316Z,31.60
2019-05-23T16:31:44.631Z,33.80
2019-05-23T16:34:12.879Z,31.00
2019-05-23T16:36:41.156Z,33.80
2019-05-23T16:39:09.500Z,32.00
2019-05-23T16:41:37.836Z,32.20
2019-05-23T16:44:06.133Z,31.20
2019-05-23T16:46:34.399Z,33.20
2019-05-23T16:49:02.641Z,32.80
2019-05-23T16:51:30.907Z,30.10
2019-05-23T16:53:59.150Z,33.60
2019-05-23T16:56:29.057Z,33.70
2019-05-23T16:59:15.429Z,32.40
2019-05-23T17:02:06.368Z,31.40
2019-05-23T17:04:48.901Z,36.90
2019-05-23T17:07:18.827Z,36.40
2019-05-23T17:10:08.153Z,34.70
2019-05-23T17:12:41.436Z,33.70
2019-05-23T17:15:14.192Z,35.20
2019-05-23T17:18:03.360Z,34.00
2019-05-23T17:20:44.457Z,34.70
2019-05-23T17:23:14.419Z,32.90
2019-05-23T17:25:47.218Z,29.90
2019-05-23T17:28:23.292Z,30.90
2019-05-23T17:30:56.153Z,32.70
2019-05-23T17:33:24.925Z,29.90
2019-05-23T17:35:53.182Z,30.10
2019-05-23T17:38:22.119Z,29.90
2019-05-23T17:40:50.773Z,28.90
2019-05-23T17:43:19.031Z,27.70
2019-05-23T17:45:47.557Z,28.20
2019-05-23T17:48:15.892Z,26.30
2019-05-23T17:50:44.220Z,27.80
2019-05-23T17:53:12.441Z,26.90
2019-05-23T17:55:40.785Z,27.30
2019-05-23T17:58:09.021Z,27.40
2019-05-23T18:00:41.731Z,27.80
2019-05-23T18:03:09.999Z,27.40
2019-05-23T18:05:38.408Z,26.50
2019-05-23T18:08:08.085Z,26.90
2019-05-23T18:10:44.620Z,28.60
2019-05-23T18:13:06.875Z,30.80
2019-05-23T18:15:35.933Z,32.80
2019-05-23T18:18:04.500Z,34.90
2019-05-23T18:20:32.949Z,37.50
2019-05-23T18:23:01.315Z,40.10
2019-05-23T18:25:29.858Z,41.60
2019-05-23T18:27:58.185Z,44.40
2019-05-23T18:30:28.062Z,46.50
2019-05-23T18:32:56.994Z,48.20
2019-05-23T18:35:26.517Z,50.40
2019-05-23T18:37:54.824Z,51.40
2019-05-23T18:40:23.187Z,52.90
2019-05-23T18:42:51.465Z,53.70
2019-05-23T18:45:21.150Z,54.50
2019-05-23T18:47:49.394Z,55.00
2019-05-23T18:50:18.834Z,56.50
2019-05-23T18:52:47.076Z,57.30
2019-05-23T18:55:15.351Z,57.70
2019-05-23T18:57:43.618Z,57.80
2019-05-23T19:00:12.022Z,58.80
2019-05-23T19:02:40.634Z,59.70
2019-05-23T19:05:10.251Z,60.40
2019-05-23T19:07:39.136Z,61.70
2019-05-23T19:10:08.492Z,62.30
2019-05-23T19:12:36.905Z,63.30
2019-05-23T19:15:06.311Z,63.60
2019-05-23T19:17:35.116Z,64.60
2019-05-23T19:20:05.592Z,64.80
2019-05-23T19:22:33.867Z,65.50
2019-05-23T19:25:04.192Z,66.00
2019-05-23T19:27:32.817Z,66.10
2019-05-23T19:30:01.083Z,67.00
2019-05-23T19:32:29.473Z,67.70
2019-05-23T19:34:57.721Z,68.60
2019-05-23T19:37:26.186Z,68.60
2019-05-23T19:39:54.710Z,69.40
2019-05-23T19:42:23.363Z,69.30
2019-05-23T19:44:51.588Z,69.50
2019-05-23T19:47:19.846Z,69.60
2019-05-23T19:49:48.149Z,71.00
2019-05-23T19:52:16.621Z,71.60
2019-05-23T19:54:44.928Z,72.00
2019-05-23T19:57:13.228Z,71.70
2019-05-23T19:59:41.501Z,72.70
2019-05-23T20:02:11.680Z,72.80
2019-05-23T20:04:41.666Z,74.30
2019-05-23T20:07:15.183Z,74.30
2019-05-23T20:09:41.646Z,74.50
2019-05-23T20:12:09.934Z,75.60
2019-05-23T20:14:38.199Z,75.40
2019-05-23T20:17:06.457Z,75.60
2019-05-23T20:19:34.789Z,75.30
2019-05-23T20:22:03.064Z,75.80
2019-05-23T20:24:31.479Z,75.80
2019-05-23T20:26:59.717Z,76.30
2019-05-23T20:29:28.044Z,76.70
2019-05-23T20:31:56.561Z,76.50
2019-05-23T20:34:25.189Z,76.40
2019-05-23T20:36:53.445Z,77.10
2019-05-23T20:39:22.675Z,77.00
2019-05-23T20:41:51.183Z,77.10
2019-05-23T20:44:19.449Z,76.70
2019-05-23T20:46:47.697Z,77.30
2019-05-23T20:49:15.954Z,76.90
2019-05-23T20:51:44.266Z,77.80
2019-05-23T20:54:12.594Z,77.90
2019-05-23T20:56:40.825Z,77.60
2019-05-23T20:59:09.563Z,77.80
2019-05-23T21:01:39.442Z,77.50
2019-05-23T21:04:07.681Z,78.50
2019-05-23T21:06:35.925Z,78.00
2019-05-23T21:09:06.643Z,78.40
2019-05-23T21:11:34.971Z,78.40
2019-05-23T21:14:03.229Z,79.00
2019-05-23T21:16:31.482Z,78.90
2019-05-23T21:18:59.787Z,78.50
2019-05-23T21:21:28.093Z,79.40
2019-05-23T21:23:57.132Z,79.00
2019-05-23T21:26:25.635Z,78.90
2019-05-23T21:28:53.885Z,78.90
2019-05-23T21:31:23.210Z,79.10
2019-05-23T21:33:51.510Z,79.10
2019-05-23T21:36:19.781Z,80.10
2019-05-23T21:38:48.030Z,79.50
2019-05-23T21:41:16.355Z,79.50
2019-05-23T21:43:46.229Z,79.40
2019-05-23T21:46:14.472Z,80.10
2019-05-23T21:48:42.710Z,79.60
2019-05-23T21:51:11.016Z,79.50
2019-05-23T21:53:39.290Z,79.70
2019-05-23T21:56:07.591Z,80.30
2019-05-23T21:58:35.869Z,80.30
2019-05-23T22:01:06.540Z,80.30
2019-05-23T22:03:40.319Z,80.60
2019-05-23T22:06:11.681Z,81.30
2019-05-23T22:08:39.949Z,81.00
2019-05-23T22:11:08.177Z,80.80
2019-05-23T22:13:36.437Z,80.90
2019-05-23T22:16:04.847Z,82.30
2019-05-23T22:18:33.082Z,81.20
2019-05-23T22:21:01.311Z,81.10
2019-05-23T22:23:29.657Z,81.80
2019-05-23T22:25:57.879Z,82.10
2019-05-23T22:28:26.205Z,82.20
2019-05-23T22:30:54.431Z,81.50
2019-05-23T22:33:24.338Z,81.50
2019-05-23T22:35:52.582Z,81.60
2019-05-23T22:38:20.821Z,81.50
2019-05-23T22:40:49.099Z,81.80
2019-05-23T22:43:21.106Z,81.80
2019-05-23T22:45:47.558Z,81.60
2019-05-23T22:48:15.922Z,81.80
2019-05-23T22:50:44.199Z,81.80
2019-05-23T22:53:12.443Z,82.20
2019-05-23T22:55:40.735Z,82.40
2019-05-23T22:58:09.009Z,82.70
2019-05-23T23:00:47.895Z,82.70
2019-05-23T23:03:16.165Z,82.50
2019-05-23T23:05:44.469Z,82.50
2019-05-23T23:08:12.740Z,82.60
2019-05-23T23:10:41.050Z,82.70
2019-05-23T23:13:09.321Z,82.80
2019-05-23T23:15:37.618Z,82.80
2019-05-23T23:18:06.239Z,82.60
2019-05-23T23:20:34.465Z,82.70
2019-05-23T23:23:02.700Z,82.50
2019-05-23T23:25:31.528Z,82.70
2019-05-23T23:27:59.766Z,83.00
2019-05-23T23:30:29.656Z,82.90
2019-05-23T23:32:57.963Z,83.10
2019-05-23T23:35:26.244Z,83.40
2019-05-23T23:37:54.463Z,83.80
2019-05-23T23:40:22.750Z,83.20
2019-05-23T23:42:51.050Z,83.00
2019-05-23T23:45:37.386Z,83.30
2019-05-23T23:48:23.700Z,83.70
2019-05-23T23:51:10.368Z,83.30
2019-05-23T23:53:56.814Z,83.50
2019-05-23T23:56:43.022Z,83.40
2019-05-23T23:59:10.600Z,83.40
